Terminal Aerodrome Forecast
Issued by NWS New Orleans/Baton Rouge, LA

Home | Current Version | Previous Version | Text Only | Print | Product List | Glossary On
Versions: 1 2 3 4 5 6 7 8 9 10 11 12 13 14 15 16
000
FTUS44 KLIX 172339
TAFNEW
TAF
KNEW 172339Z 1800/1824 22007KT P6SM FEW030 SCT110
     FM180800 29005KT 4SM BR SCT020 OVC050
     FM181000 29004KT 1/2SM FG BKN007 OVC035
     FM181200 08004KT 1SM BR BKN007 OVC040
     FM181700 13006KT P6SM BKN025
     FM182100 14007KT P6SM BKN035=

USA.gov is the U.S. government's official web portal to all federal, state and local government web resources and services.